Time;durP1;ratioP1;P1;durP2;ratioP2;P2;SDS_P1;SDS_P2;PMS_P1;PMS_P2;Temp;Humidity;BMP_temperature;BMP_pressure;BME280_temperature;BME280_humidity;BME280_pressure;Samples;Min_cycle;Max_cycle;Signal;HPM_P1;HPM_P2
2024/01/24 00:01:38;;;;;;;1999.90;999.90;;;5.30;99.90;;;;;;4991923;28;20521;-75
2024/01/24 00:04:04;;;;;;;1999.90;999.90;;;5.30;99.90;;;;;;5013023;28;20054;-75
2024/01/24 00:06:29;;;;;;;1999.90;999.90;;;5.30;99.90;;;;;;5008724;28;20633;-77
2024/01/24 00:08:55;;;;;;;1999.90;999.90;;;5.40;99.90;;;;;;5013221;28;20084;-76
2024/01/24 00:11:21;;;;;;;1999.90;999.90;;;5.40;99.90;;;;;;5011484;28;20212;-75
2024/01/24 00:13:46;;;;;;;1999.90;999.90;;;5.50;99.90;;;;;;4978492;28;21414;-74
2024/01/24 00:16:12;;;;;;;1999.90;999.90;;;5.50;99.90;;;;;;5011971;28;20042;-77
2024/01/24 00:18:38;;;;;;;1999.90;999.90;;;5.50;99.90;;;;;;5010200;28;20034;-76
2024/01/24 00:21:03;;;;;;;1999.90;999.90;;;5.40;99.90;;;;;;5007296;28;20408;-77
2024/01/24 00:23:29;;;;;;;1999.90;999.90;;;5.40;99.90;;;;;;5009840;28;20444;-77
2024/01/24 00:25:55;;;;;;;1999.90;999.90;;;5.50;99.90;;;;;;5007510;28;20033;-76
2024/01/24 00:28:22;;;;;;;1999.90;999.90;;;5.50;99.90;;;;;;5010624;28;20643;-76
2024/01/24 00:30:47;;;;;;;1999.90;999.90;;;5.60;99.90;;;;;;5013485;28;20538;-76
2024/01/24 00:33:15;;;;;;;1999.90;999.90;;;5.60;99.90;;;;;;5007997;28;20034;-76
2024/01/24 00:35:41;;;;;;;1999.90;999.90;;;5.60;99.90;;;;;;5009015;28;20601;-76
2024/01/24 00:38:06;;;;;;;1999.90;999.90;;;5.60;99.90;;;;;;5012275;28;20041;-77
2024/01/24 00:40:32;;;;;;;1999.90;999.90;;;5.50;99.90;;;;;;4994200;28;20038;-76
2024/01/24 00:42:58;;;;;;;1999.90;999.90;;;5.60;99.90;;;;;;5013583;28;20589;-77
2024/01/24 00:45:23;;;;;;;1999.90;999.90;;;5.60;99.90;;;;;;5009059;28;20029;-75
2024/01/24 00:47:49;;;;;;;1999.90;999.90;;;5.60;99.90;;;;;;5009275;28;20072;-76
2024/01/24 00:50:15;;;;;;;1999.90;999.90;;;5.50;99.90;;;;;;5017943;28;20060;-76
2024/01/24 00:52:40;;;;;;;1999.90;999.90;;;5.40;99.90;;;;;;5012196;28;20754;-77
2024/01/24 00:55:06;;;;;;;1999.90;999.90;;;5.40;99.90;;;;;;5014682;28;20388;-76
2024/01/24 00:57:32;;;;;;;1999.90;999.90;;;5.40;99.90;;;;;;5008800;28;20057;-74
2024/01/24 00:59:58;;;;;;;1999.90;999.90;;;5.40;99.90;;;;;;5011952;28;20061;-75
2024/01/24 01:02:23;;;;;;;1999.90;999.90;;;5.30;99.90;;;;;;5013789;28;20034;-75
2024/01/24 01:04:50;;;;;;;1999.90;999.90;;;5.30;99.90;;;;;;5010287;28;20033;-75
2024/01/24 01:07:16;;;;;;;1999.90;999.90;;;5.20;99.90;;;;;;5012640;28;20026;-74
2024/01/24 01:09:41;;;;;;;1999.90;999.90;;;5.20;99.90;;;;;;5006240;28;20045;-75
2024/01/24 01:12:07;;;;;;;1999.90;999.90;;;5.20;99.90;;;;;;5009598;28;20049;-75
2024/01/24 01:14:33;;;;;;;1999.90;999.90;;;5.10;99.90;;;;;;5007406;28;20030;-75
2024/01/24 01:16:58;;;;;;;1999.90;999.90;;;5.10;99.90;;;;;;5005208;28;20034;-77
2024/01/24 01:19:24;;;;;;;1999.90;999.90;;;4.80;99.90;;;;;;5009203;28;20054;-77
2024/01/24 01:21:50;;;;;;;1999.90;999.90;;;4.80;99.90;;;;;;5009718;28;20576;-77
2024/01/24 01:24:15;;;;;;;1999.90;999.90;;;4.70;99.90;;;;;;5009911;28;20040;-75
2024/01/24 01:26:41;;;;;;;1999.90;999.90;;;4.80;99.90;;;;;;5009691;28;20030;-75
2024/01/24 01:29:07;;;;;;;1999.90;999.90;;;4.80;99.90;;;;;;5010214;28;20438;-76
2024/01/24 01:31:32;;;;;;;1999.90;999.90;;;4.90;99.90;;;;;;5005885;28;20022;-78
2024/01/24 01:34:00;;;;;;;1999.90;999.90;;;4.90;99.90;;;;;;5008730;28;20034;-76
2024/01/24 01:36:26;;;;;;;1999.90;999.90;;;4.90;99.90;;;;;;5013199;28;20038;-75
2024/01/24 01:38:52;;;;;;;1999.90;999.90;;;4.90;99.90;;;;;;5012639;28;20030;-76
2024/01/24 01:41:18;;;;;;;1999.90;999.90;;;4.90;99.90;;;;;;5013039;28;20777;-76
2024/01/24 01:43:44;;;;;;;1999.90;999.90;;;4.90;99.90;;;;;;5011787;28;20401;-77
2024/01/24 01:46:17;;;;;;;1999.90;999.90;;;4.80;99.90;;;;;;5014760;28;20022;-75
2024/01/24 01:48:42;;;;;;;1999.90;999.90;;;4.80;99.90;;;;;;5013970;28;20030;-76
2024/01/24 01:51:08;;;;;;;1999.90;999.90;;;4.80;99.90;;;;;;5016970;28;20515;-75
2024/01/24 01:53:38;;;;;;;1999.90;999.90;;;4.80;99.90;;;;;;5012685;28;20116;-75
2024/01/24 01:56:11;;;;;;;1999.90;999.90;;;4.80;99.90;;;;;;5012246;28;20026;-78
2024/01/24 01:58:38;;;;;;;1999.90;999.90;;;4.80;99.90;;;;;;5012342;28;20669;-75
2024/01/24 02:01:06;;;;;;;1999.90;999.90;;;5.00;99.90;;;;;;5011142;28;20065;-75
2024/01/24 02:03:32;;;;;;;1999.90;999.90;;;5.00;99.90;;;;;;5016726;28;20068;-76
2024/01/24 02:05:57;;;;;;;1999.90;999.90;;;5.10;99.90;;;;;;5016994;28;20061;-77
2024/01/24 02:08:23;;;;;;;1999.90;999.90;;;5.10;99.90;;;;;;5013880;28;20079;-77
2024/01/24 02:10:49;;;;;;;1999.90;999.90;;;5.00;99.90;;;;;;5018033;28;20096;-77
2024/01/24 02:13:15;;;;;;;1999.90;999.90;;;5.10;99.90;;;;;;5013709;28;20690;-77
2024/01/24 02:15:40;;;;;;;1999.90;999.90;;;5.10;99.90;;;;;;5010457;28;20139;-76
2024/01/24 02:18:06;;;;;;;1999.90;999.90;;;5.20;99.90;;;;;;5014521;28;20030;-78
2024/01/24 02:20:33;;;;;;;1999.90;999.90;;;5.20;99.90;;;;;;5012249;28;20076;-77
2024/01/24 02:22:59;;;;;;;1999.90;999.90;;;5.50;97.80;;;;;;5012197;28;20030;-78
2024/01/24 02:25:24;;;;;;;1999.90;999.90;;;5.70;97.00;;;;;;5014102;28;20143;-77
2024/01/24 02:27:50;;;;;;;1999.90;999.90;;;5.70;97.50;;;;;;5009278;28;20038;-77
2024/01/24 02:30:16;;;;;;;1999.90;999.90;;;5.70;94.70;;;;;;5012792;28;20053;-76
2024/01/24 02:32:41;;;;;;;1999.90;999.90;;;5.70;93.40;;;;;;5013514;28;20496;-77
2024/01/24 02:35:07;;;;;;;1999.90;999.90;;;5.70;92.00;;;;;;4993175;28;20030;-75
2024/01/24 02:37:33;;;;;;;1999.90;999.90;;;5.80;91.40;;;;;;5013325;28;20057;-76
2024/01/24 02:39:59;;;;;;;1999.90;999.90;;;5.80;91.40;;;;;;5014076;28;20488;-77
2024/01/24 02:42:24;;;;;;;1999.90;999.90;;;6.00;91.10;;;;;;5010533;28;20433;-78
2024/01/24 02:44:50;;;;;;;1999.90;999.90;;;5.90;90.90;;;;;;5013768;28;20065;-75
2024/01/24 02:47:19;;;;;;;1999.90;999.90;;;5.90;91.00;;;;;;5012611;28;20399;-75
2024/01/24 02:49:44;;;;;;;1999.90;999.90;;;6.00;90.70;;;;;;5011628;28;20022;-76
2024/01/24 02:52:10;;;;;;;1999.90;999.90;;;6.10;90.40;;;;;;5010461;28;20543;-75
2024/01/24 02:54:37;;;;;;;1999.90;999.90;;;6.10;90.20;;;;;;5011624;28;20026;-75
2024/01/24 02:57:03;;;;;;;1999.90;999.90;;;6.30;89.70;;;;;;5015061;28;20113;-75
2024/01/24 02:59:29;;;;;;;1999.90;999.90;;;6.10;89.90;;;;;;5014831;28;20149;-76
2024/01/24 03:01:55;;;;;;;1999.90;999.90;;;6.20;89.90;;;;;;5013351;28;20120;-76
2024/01/24 03:04:21;;;;;;;1999.90;999.90;;;6.20;89.60;;;;;;5017473;28;20765;-76
2024/01/24 03:06:47;;;;;;;1999.90;999.90;;;6.20;89.00;;;;;;5013291;28;20021;-77
2024/01/24 03:09:13;;;;;;;1999.90;999.90;;;6.40;88.20;;;;;;4997439;28;20043;-76
2024/01/24 03:11:39;;;;;;;1999.90;999.90;;;6.40;87.50;;;;;;5015222;28;20022;-76
2024/01/24 03:14:04;;;;;;;1999.90;999.90;;;6.40;86.90;;;;;;5015860;28;20547;-77
2024/01/24 03:16:31;;;;;;;1999.90;999.90;;;6.50;86.60;;;;;;5007316;28;20038;-76
2024/01/24 03:18:56;;;;;;;1999.90;999.90;;;6.70;85.30;;;;;;5023427;28;20036;-76
2024/01/24 03:21:22;;;;;;;1999.90;999.90;;;6.80;84.70;;;;;;5013425;28;20136;-78
2024/01/24 03:23:48;;;;;;;1999.90;999.90;;;6.90;84.70;;;;;;5000569;28;20036;-76
2024/01/24 03:26:15;;;;;;;1999.90;999.90;;;6.80;84.50;;;;;;5012623;28;20048;-76
2024/01/24 03:28:41;;;;;;;1999.90;999.90;;;6.80;85.00;;;;;;5014828;28;20053;-76
2024/01/24 03:31:06;;;;;;;1999.90;999.90;;;6.90;84.40;;;;;;5015860;28;20480;-75
2024/01/24 03:33:32;;;;;;;1999.90;999.90;;;6.90;84.80;;;;;;5015607;28;20499;-76
2024/01/24 03:35:57;;;;;;;1999.90;999.90;;;6.90;83.90;;;;;;5015723;28;20502;-76
2024/01/24 03:38:23;;;;;;;1999.90;999.90;;;7.10;83.70;;;;;;5011514;28;20435;-76
2024/01/24 03:40:49;;;;;;;1999.90;999.90;;;7.10;83.10;;;;;;5009985;28;20038;-75
2024/01/24 03:43:15;;;;;;;1999.90;999.90;;;7.10;83.30;;;;;;5026509;28;20527;-78
2024/01/24 03:45:40;;;;;;;1999.90;999.90;;;7.30;82.30;;;;;;5014054;28;20025;-75
2024/01/24 03:48:07;;;;;;;1999.90;999.90;;;7.40;81.80;;;;;;5014369;28;20054;-77
2024/01/24 03:50:33;;;;;;;1999.90;999.90;;;7.50;81.70;;;;;;5012353;28;20069;-76
2024/01/24 03:53:02;;;;;;;1999.90;999.90;;;7.60;81.60;;;;;;5015732;28;20082;-76
2024/01/24 03:55:31;;;;;;;1999.90;999.90;;;7.70;81.30;;;;;;5009578;28;20108;-77
2024/01/24 03:57:57;;;;;;;1999.90;999.90;;;7.80;80.70;;;;;;5016247;28;20021;-76
2024/01/24 04:00:23;;;;;;;1999.90;999.90;;;7.80;81.50;;;;;;5012695;28;20034;-75
2024/01/24 04:02:49;;;;;;;1999.90;999.90;;;7.70;81.60;;;;;;5017985;28;20037;-76
2024/01/24 04:05:16;;;;;;;1999.90;999.90;;;7.80;81.30;;;;;;5012472;28;20156;-75
2024/01/24 04:07:41;;;;;;;1999.90;999.90;;;7.70;82.00;;;;;;5015881;28;20087;-78
2024/01/24 04:10:08;;;;;;;1999.90;999.90;;;7.80;82.10;;;;;;5010295;28;20029;-78
2024/01/24 04:12:34;;;;;;;1999.90;999.90;;;7.80;82.10;;;;;;5016152;28;20034;-79
2024/01/24 04:14:59;;;;;;;1999.90;999.90;;;7.80;82.20;;;;;;5010456;28;20034;-77
2024/01/24 04:17:25;;;;;;;1999.90;999.90;;;7.90;82.10;;;;;;5012512;28;20025;-77
2024/01/24 04:19:52;;;;;;;1999.90;999.90;;;8.00;81.60;;;;;;5012702;28;20053;-78
2024/01/24 04:22:18;;;;;;;1999.90;999.90;;;8.00;81.90;;;;;;5014736;28;20040;-75
2024/01/24 04:24:44;;;;;;;1999.90;999.90;;;7.90;82.50;;;;;;5015269;28;20029;-76
2024/01/24 04:27:10;;;;;;;1999.90;999.90;;;7.90;82.60;;;;;;5012827;28;20033;-76
2024/01/24 04:29:35;;;;;;;1999.90;999.90;;;7.90;82.50;;;;;;5011852;28;20422;-75
2024/01/24 04:32:01;;;;;;;1999.90;999.90;;;7.90;82.50;;;;;;5009535;28;20029;-77
2024/01/24 04:34:27;;;;;;;1999.90;999.90;;;7.80;82.80;;;;;;5012222;28;20037;-78
2024/01/24 04:36:55;;;;;;;1999.90;999.90;;;7.90;82.50;;;;;;5007837;28;20036;-76
2024/01/24 04:39:21;;;;;;;1999.90;999.90;;;8.00;82.40;;;;;;5012759;28;20137;-75
2024/01/24 04:41:48;;;;;;;1999.90;999.90;;;7.90;83.00;;;;;;5014462;28;20244;-78
2024/01/24 04:44:14;;;;;;;1999.90;999.90;;;7.90;83.20;;;;;;5013278;28;20628;-76
2024/01/24 04:46:40;;;;;;;1999.90;999.90;;;7.90;83.80;;;;;;5009086;28;20029;-75
2024/01/24 04:49:07;;;;;;;1999.90;999.90;;;7.90;83.80;;;;;;5009380;28;20035;-76
2024/01/24 04:51:33;;;;;;;1999.90;999.90;;;7.90;84.10;;;;;;5014425;28;20646;-76
2024/01/24 04:53:59;;;;;;;1999.90;999.90;;;8.00;84.00;;;;;;5009699;28;20460;-76
2024/01/24 04:56:24;;;;;;;1999.90;999.90;;;8.00;83.70;;;;;;5009517;28;20057;-75
2024/01/24 04:58:50;;;;;;;1999.90;999.90;;;7.90;83.90;;;;;;5013697;28;20038;-78
2024/01/24 05:01:16;;;;;;;1999.90;999.90;;;7.90;84.60;;;;;;5009927;28;20037;-76
2024/01/24 05:03:41;;;;;;;1999.90;999.90;;;7.90;85.20;;;;;;5014060;28;20038;-74
2024/01/24 05:06:07;;;;;;;1999.90;999.90;;;8.00;85.70;;;;;;5013954;28;20023;-76
2024/01/24 05:08:33;;;;;;;1999.90;999.90;;;8.00;86.00;;;;;;5002869;28;20411;-75
2024/01/24 05:10:59;;;;;;;1999.90;999.90;;;8.10;86.20;;;;;;4997223;28;20044;-75
2024/01/24 05:13:24;;;;;;;1999.90;999.90;;;8.20;86.40;;;;;;5012925;28;20034;-76
2024/01/24 05:15:50;;;;;;;1999.90;999.90;;;8.30;86.40;;;;;;5012991;28;20050;-75
2024/01/24 05:18:16;;;;;;;1999.90;999.90;;;8.40;86.10;;;;;;5007793;28;20073;-75
2024/01/24 05:20:42;;;;;;;1999.90;999.90;;;8.60;85.40;;;;;;5011199;28;20049;-77
2024/01/24 05:23:07;;;;;;;1999.90;999.90;;;8.60;84.60;;;;;;5022959;28;20026;-77
2024/01/24 05:25:33;;;;;;;1999.90;999.90;;;8.70;84.60;;;;;;5017093;28;20444;-80
2024/01/24 05:27:59;;;;;;;1999.90;999.90;;;8.70;84.60;;;;;;5015117;28;20030;-79
2024/01/24 05:30:25;;;;;;;1999.90;999.90;;;8.70;84.70;;;;;;5014063;28;20038;-79
2024/01/24 05:32:56;;;;;;;1999.90;999.90;;;8.70;84.20;;;;;;5017393;28;20048;-78
2024/01/24 05:35:22;;;;;;;1999.90;999.90;;;8.70;84.60;;;;;;5013033;28;20065;-80
2024/01/24 05:37:47;;;;;;;1999.90;999.90;;;8.60;84.80;;;;;;5018146;28;20050;-80
2024/01/24 05:40:13;;;;;;;1999.90;999.90;;;8.50;85.10;;;;;;5020521;28;20091;-79
2024/01/24 05:42:39;;;;;;;1999.90;999.90;;;8.40;85.70;;;;;;5011930;28;20454;-80
2024/01/24 05:45:05;;;;;;;1999.90;999.90;;;8.30;86.00;;;;;;5010239;28;20065;-78
2024/01/24 05:47:31;;;;;;;1999.90;999.90;;;8.30;86.60;;;;;;5017317;28;20029;-77
2024/01/24 05:50:01;;;;;;;1999.90;999.90;;;8.40;85.90;;;;;;5015681;28;20060;-77
2024/01/24 05:52:26;;;;;;;1999.90;999.90;;;8.40;86.20;;;;;;5002565;28;20041;-78
2024/01/24 05:54:52;;;;;;;1999.90;999.90;;;8.40;86.30;;;;;;5005892;28;20440;-78
2024/01/24 05:57:18;;;;;;;1999.90;999.90;;;8.50;86.30;;;;;;5013345;28;20037;-78
2024/01/24 05:59:44;;;;;;;1999.90;999.90;;;8.40;86.60;;;;;;5010642;28;20149;-78
2024/01/24 06:02:09;;;;;;;1999.90;999.90;;;8.30;86.30;;;;;;5014492;28;20490;-78
2024/01/24 06:04:36;;;;;;;1999.90;999.90;;;8.30;86.70;;;;;;5010991;28;20041;-79
2024/01/24 06:07:02;;;;;;;1999.90;999.90;;;8.40;86.90;;;;;;5015364;28;20057;-78
2024/01/24 06:09:28;;;;;;;1999.90;999.90;;;8.30;87.40;;;;;;5019189;28;20052;-78
2024/01/24 06:11:54;;;;;;;1999.90;999.90;;;8.30;87.40;;;;;;5006259;28;20037;-78
2024/01/24 06:14:20;;;;;;;1999.90;999.90;;;8.20;87.80;;;;;;5014166;28;20042;-77
2024/01/24 06:16:45;;;;;;;1999.90;999.90;;;8.20;88.20;;;;;;5011061;28;20041;-79
2024/01/24 06:19:11;;;;;;;1999.90;999.90;;;8.10;88.20;;;;;;5004759;28;20050;-79
2024/01/24 06:21:37;;;;;;;1999.90;999.90;;;8.20;88.40;;;;;;5013408;28;20186;-79
2024/01/24 06:24:05;;;;;;;1999.90;999.90;;;8.70;90.40;;;;;;5010927;28;20037;-79
2024/01/24 06:26:31;;;;;;;1999.90;999.90;;;9.10;90.50;;;;;;5010224;28;20125;-83
2024/01/24 06:28:57;;;;;;;1999.90;999.90;;;9.50;90.10;;;;;;5016086;28;20113;-81
2024/01/24 06:31:23;;;;;;;1999.90;999.90;;;9.70;89.10;;;;;;5008739;28;20038;-83
2024/01/24 06:33:48;;;;;;;1999.90;999.90;;;9.90;88.00;;;;;;5014380;28;20061;-81
2024/01/24 06:36:14;;;;;;;1999.90;999.90;;;10.00;87.70;;;;;;5012812;28;20107;-81
2024/01/24 06:38:40;;;;;;;1999.90;999.90;;;10.10;87.10;;;;;;5019754;28;20042;-82
2024/01/24 06:41:05;;;;;;;1999.90;999.90;;;10.10;87.00;;;;;;5016263;28;20835;-79
2024/01/24 06:43:31;;;;;;;1999.90;999.90;;;10.20;86.60;;;;;;4997946;28;20085;-80
2024/01/24 06:45:57;;;;;;;1999.90;999.90;;;10.20;86.40;;;;;;5015764;28;20664;-81
2024/01/24 06:48:22;;;;;;;1999.90;999.90;;;10.50;85.70;;;;;;5012739;28;20056;-79
2024/01/24 06:50:48;;;;;;;1999.90;999.90;;;10.60;85.40;;;;;;5013048;28;20113;-84
2024/01/24 06:53:14;;;;;;;1999.90;999.90;;;10.60;85.10;;;;;;5013999;28;20087;-82
2024/01/24 06:55:41;;;;;;;1999.90;999.90;;;10.60;85.10;;;;;;5014091;28;20053;-80
2024/01/24 06:58:07;;;;;;;1999.90;999.90;;;10.50;85.40;;;;;;4997438;28;20030;-80
2024/01/24 07:00:33;;;;;;;1999.90;999.90;;;10.60;85.00;;;;;;5013748;28;20068;-83
2024/01/24 07:03:00;;;;;;;1999.90;999.90;;;10.60;85.00;;;;;;5028806;28;20034;-80
2024/01/24 07:05:26;;;;;;;1999.90;999.90;;;10.60;84.90;;;;;;5015145;28;20108;-82
2024/01/24 07:07:52;;;;;;;1999.90;999.90;;;10.50;85.20;;;;;;5015720;28;20108;-81
2024/01/24 07:10:17;;;;;;;1999.90;999.90;;;10.50;85.10;;;;;;5012370;28;20048;-81
2024/01/24 07:12:46;;;;;;;1999.90;999.90;;;10.50;85.00;;;;;;4998063;28;20489;-80
2024/01/24 07:15:12;;;;;;;1999.90;999.90;;;10.50;85.10;;;;;;4998284;28;20677;-81
2024/01/24 07:17:38;;;;;;;1999.90;999.90;;;10.40;85.20;;;;;;5008686;28;20034;-81
2024/01/24 07:20:04;;;;;;;1999.90;999.90;;;10.50;85.30;;;;;;5014813;28;20041;-83
2024/01/24 07:22:31;;;;;;;1999.90;999.90;;;10.50;85.40;;;;;;5013696;28;20040;-81
2024/01/24 07:24:57;;;;;;;1999.90;999.90;;;10.40;85.60;;;;;;5016263;28;20037;-80
2024/01/24 07:27:22;;;;;;;1999.90;999.90;;;10.40;85.70;;;;;;5019010;28;20502;-81
2024/01/24 07:29:49;;;;;;;1999.90;999.90;;;10.40;85.60;;;;;;5012206;28;20159;-80
2024/01/24 07:32:15;;;;;;;1999.90;999.90;;;10.40;85.70;;;;;;5017498;28;20415;-82
2024/01/24 07:34:41;;;;;;;1999.90;999.90;;;10.40;86.00;;;;;;5014221;28;20123;-80
2024/01/24 07:37:08;;;;;;;1999.90;999.90;;;10.40;86.40;;;;;;5031167;28;20084;-81
2024/01/24 07:39:34;;;;;;;1999.90;999.90;;;10.40;85.70;;;;;;4997312;28;20052;-82
2024/01/24 07:42:00;;;;;;;1999.90;999.90;;;10.40;85.70;;;;;;5012563;28;20100;-81
2024/01/24 07:44:26;;;;;;;1999.90;999.90;;;10.50;85.20;;;;;;5016308;28;20179;-79
2024/01/24 07:46:53;;;;;;;1999.90;999.90;;;10.40;85.10;;;;;;5029287;28;20040;-79
2024/01/24 07:49:18;;;;;;;1999.90;999.90;;;10.40;85.30;;;;;;5025795;28;20025;-79
2024/01/24 07:51:46;;;;;;;1999.90;999.90;;;10.40;85.50;;;;;;5018372;28;20079;-81
2024/01/24 07:54:12;;;;;;;1999.90;999.90;;;10.40;85.20;;;;;;5008370;28;20092;-82
2024/01/24 07:56:39;;;;;;;1999.90;999.90;;;10.40;85.20;;;;;;5014319;28;20068;-79
2024/01/24 07:59:05;;;;;;;1999.90;999.90;;;10.40;85.40;;;;;;5014406;28;20033;-80
2024/01/24 08:01:31;;;;;;;1999.90;999.90;;;10.40;85.20;;;;;;5009832;28;20061;-80
2024/01/24 08:03:58;;;;;;;1999.90;999.90;;;10.50;85.00;;;;;;4992636;28;20457;-78
2024/01/24 08:06:24;;;;;;;1999.90;999.90;;;10.60;84.70;;;;;;5013246;28;20030;-80
2024/01/24 08:08:50;;;;;;;1999.90;999.90;;;10.50;84.90;;;;;;5015149;28;20748;-79
2024/01/24 08:11:17;;;;;;;1999.90;999.90;;;10.50;84.90;;;;;;5015174;28;20029;-79
2024/01/24 08:13:44;;;;;;;1999.90;999.90;;;10.50;85.00;;;;;;5015818;28;20092;-76
2024/01/24 08:16:10;;;;;;;1999.90;999.90;;;10.60;84.90;;;;;;5020178;28;20447;-81
2024/01/24 08:18:36;;;;;;;1999.90;999.90;;;10.70;84.70;;;;;;5010607;28;20068;-81
2024/01/24 08:21:02;;;;;;;1999.90;999.90;;;10.60;84.50;;;;;;5017478;28;20751;-79
2024/01/24 08:23:27;;;;;;;1999.90;999.90;;;10.60;85.00;;;;;;5011158;28;20063;-79
2024/01/24 08:25:54;;;;;;;1999.90;999.90;;;10.50;85.30;;;;;;5015422;28;20084;-80
2024/01/24 08:28:20;;;;;;;1999.90;999.90;;;10.60;85.10;;;;;;5011761;28;20109;-80
2024/01/24 08:30:49;;;;;;;1999.90;999.90;;;10.60;84.80;;;;;;5013139;28;20130;-82
2024/01/24 08:33:15;;;;;;;1999.90;999.90;;;10.80;84.00;;;;;;5011789;28;20042;-81
2024/01/24 08:35:41;;;;;;;1999.90;999.90;;;10.70;84.00;;;;;;5010958;28;20033;-81
2024/01/24 08:38:06;;;;;;;1999.90;999.90;;;10.70;84.90;;;;;;5013563;28;20807;-81
2024/01/24 08:40:32;;;;;;;1999.90;999.90;;;10.70;85.40;;;;;;5011013;28;20038;-81
2024/01/24 08:42:58;;;;;;;1999.90;999.90;;;10.70;85.60;;;;;;4997823;28;20053;-79
2024/01/24 08:45:24;;;;;;;1999.90;999.90;;;10.70;86.20;;;;;;5009835;28;20057;-80
2024/01/24 08:47:50;;;;;;;1999.90;999.90;;;10.80;85.00;;;;;;5011115;28;20084;-81
2024/01/24 08:50:16;;;;;;;1999.90;999.90;;;10.80;85.00;;;;;;5008603;28;20025;-80
2024/01/24 08:52:42;;;;;;;1999.90;999.90;;;11.00;84.00;;;;;;5011901;28;20093;-81
2024/01/24 08:55:15;;;;;;;1999.90;999.90;;;10.90;83.80;;;;;;5015384;28;20042;-87
2024/01/24 08:57:42;;;;;;;1999.90;999.90;;;11.00;83.90;;;;;;5016613;28;20495;-82
2024/01/24 09:00:13;;;;;;;1999.90;999.90;;;11.00;83.30;;;;;;5019771;28;20153;-81
2024/01/24 09:02:38;;;;;;;1999.90;999.90;;;11.00;83.70;;;;;;5020464;28;20036;-83
2024/01/24 09:05:05;;;;;;;1999.90;999.90;;;11.10;83.30;;;;;;5016054;28;20037;-82
2024/01/24 09:07:31;;;;;;;1999.90;999.90;;;11.20;83.00;;;;;;5031015;28;20077;-83
2024/01/24 09:09:57;;;;;;;1999.90;999.90;;;11.20;82.90;;;;;;5017713;28;20064;-82
2024/01/24 09:12:23;;;;;;;1999.90;999.90;;;11.20;83.20;;;;;;5020623;28;20167;-80
2024/01/24 09:14:49;;;;;;;1999.90;999.90;;;11.10;83.20;;;;;;5014224;28;20120;-81
2024/01/24 09:17:17;;;;;;;1999.90;999.90;;;11.20;82.80;;;;;;5016825;28;20033;-80
2024/01/24 09:19:44;;;;;;;1999.90;999.90;;;11.20;82.60;;;;;;5018713;28;20129;-80
2024/01/24 09:22:10;;;;;;;1999.90;999.90;;;11.20;83.50;;;;;;5016162;28;21011;-81
2024/01/24 09:24:36;;;;;;;1999.90;999.90;;;11.30;83.00;;;;;;5015749;28;20033;-81
2024/01/24 09:27:03;;;;;;;1999.90;999.90;;;11.30;82.40;;;;;;5021068;28;20118;-80
2024/01/24 09:29:29;;;;;;;1999.90;999.90;;;11.30;82.60;;;;;;5018123;28;20140;-78
2024/01/24 09:31:54;;;;;;;1999.90;999.90;;;11.30;82.60;;;;;;5002006;28;20113;-81
2024/01/24 09:34:20;;;;;;;1999.90;999.90;;;11.30;82.40;;;;;;5014515;28;20036;-80
2024/01/24 09:36:46;;;;;;;1999.90;999.90;;;11.30;82.80;;;;;;5018016;28;20154;-82
2024/01/24 09:39:12;;;;;;;1999.90;999.90;;;11.30;82.70;;;;;;5020263;28;20037;-82
2024/01/24 09:41:42;;;;;;;1999.90;999.90;;;11.40;82.70;;;;;;5021315;28;20512;-80
2024/01/24 09:44:09;;;;;;;1999.90;999.90;;;11.50;82.30;;;;;;5006592;28;20045;-79
2024/01/24 09:46:40;;;;;;;1999.90;999.90;;;11.50;82.60;;;;;;5013320;28;20112;-81
2024/01/24 09:49:06;;;;;;;1999.90;999.90;;;11.50;82.50;;;;;;5022491;28;20107;-80
2024/01/24 09:51:34;;;;;;;1999.90;999.90;;;11.50;82.20;;;;;;5018227;28;20091;-82
2024/01/24 09:54:05;;;;;;;1999.90;999.90;;;11.50;82.40;;;;;;5012099;28;20033;-81
2024/01/24 09:56:38;;;;;;;1999.90;999.90;;;11.40;82.00;;;;;;5018094;28;20037;-83
2024/01/24 09:59:05;;;;;;;1999.90;999.90;;;11.40;81.90;;;;;;5016313;28;20052;-80
2024/01/24 10:01:35;;;;;;;1999.90;999.90;;;11.40;81.80;;;;;;5014123;28;20045;-81
2024/01/24 10:04:01;;;;;;;1999.90;999.90;;;11.40;82.30;;;;;;5013338;28;20017;-84
2024/01/24 10:06:30;;;;;;;1999.90;999.90;;;11.60;81.70;;;;;;5017619;28;20033;-80
2024/01/24 10:08:57;;;;;;;1999.90;999.90;;;11.60;81.70;;;;;;5015004;28;20030;-81
2024/01/24 10:11:26;;;;;;;1999.90;999.90;;;11.80;81.40;;;;;;5024372;28;20488;-81
2024/01/24 10:13:58;;;;;;;1999.90;999.90;;;11.80;81.10;;;;;;5017432;28;20046;-83
2024/01/24 10:16:25;;;;;;;1999.90;999.90;;;11.80;80.50;;;;;;5028007;28;20116;-84
2024/01/24 10:18:57;;;;;;;1999.90;999.90;;;11.70;80.50;;;;;;5036789;28;20118;-83
2024/01/24 10:21:25;;;;;;;1999.90;999.90;;;11.70;81.00;;;;;;5019516;28;20026;-82
2024/01/24 10:23:55;;;;;;;1999.90;999.90;;;11.70;80.90;;;;;;5029097;28;20068;-80
2024/01/24 10:26:20;;;;;;;1999.90;999.90;;;11.70;81.10;;;;;;5025345;28;20107;-80
2024/01/24 10:28:49;;;;;;;1999.90;999.90;;;11.80;80.50;;;;;;5037749;28;20481;-84
2024/01/24 10:31:16;;;;;;;1999.90;999.90;;;11.80;80.20;;;;;;5028628;28;20045;-85
2024/01/24 10:33:42;;;;;;;1999.90;999.90;;;11.80;80.60;;;;;;5034780;28;20060;-82
2024/01/24 10:36:10;;;;;;;1999.90;999.90;;;11.80;80.40;;;;;;5027688;28;20038;-81
2024/01/24 10:38:38;;;;;;;1999.90;999.90;;;11.80;80.20;;;;;;5020017;28;20369;-83
2024/01/24 10:41:11;;;;;;;1999.90;999.90;;;11.80;80.40;;;;;;5017427;28;20029;-80
2024/01/24 10:43:42;;;;;;;1999.90;999.90;;;11.80;80.60;;;;;;5016042;28;20713;-80
2024/01/24 10:46:09;;;;;;;1999.90;999.90;;;11.90;80.40;;;;;;5021241;28;20030;-80
2024/01/24 10:48:35;;;;;;;1999.90;999.90;;;11.90;80.30;;;;;;5023008;28;20030;-80
2024/01/24 10:51:02;;;;;;;1999.90;999.90;;;11.90;79.80;;;;;;5021371;28;20458;-77
2024/01/24 10:53:31;;;;;;;1999.90;999.90;;;12.00;79.60;;;;;;5016256;28;20060;-79
2024/01/24 10:56:00;;;;;;;1999.90;999.90;;;12.00;79.90;;;;;;5022034;28;20424;-81
2024/01/24 10:58:28;;;;;;;1999.90;999.90;;;12.10;79.70;;;;;;5011167;28;20117;-80
2024/01/24 11:00:55;;;;;;;1999.90;999.90;;;12.00;79.90;;;;;;5014615;28;20049;-77
2024/01/24 11:03:21;;;;;;;1999.90;999.90;;;12.00;79.90;;;;;;5017599;28;20542;-79
2024/01/24 11:05:55;;;;;;;1999.90;999.90;;;12.00;79.70;;;;;;5004256;28;20699;-79
2024/01/24 11:08:29;;;;;;;1999.90;999.90;;;12.00;79.70;;;;;;5013397;28;20054;-81
2024/01/24 11:10:59;;;;;;;1999.90;999.90;;;12.10;79.90;;;;;;5022562;28;20500;-81
2024/01/24 11:13:24;;;;;;;1999.90;999.90;;;12.20;80.00;;;;;;5015344;28;20056;-80
2024/01/24 11:15:55;;;;;;;1999.90;999.90;;;12.20;79.60;;;;;;5017816;28;20043;-79
2024/01/24 11:18:28;;;;;;;1999.90;999.90;;;12.20;79.50;;;;;;5020257;28;20029;-80
2024/01/24 11:21:01;;;;;;;1999.90;999.90;;;12.20;79.30;;;;;;5016376;28;20053;-80
2024/01/24 11:23:40;;;;;;;1999.90;999.90;;;12.10;79.30;;;;;;5010894;28;20536;-79
2024/01/24 11:26:08;;;;;;;1999.90;999.90;;;12.20;79.40;;;;;;5019070;28;20029;-79
2024/01/24 11:28:34;;;;;;;1999.90;999.90;;;12.20;79.40;;;;;;5022362;28;20028;-80
2024/01/24 11:31:00;;;;;;;1999.90;999.90;;;12.10;79.30;;;;;;5029268;28;20033;-81
2024/01/24 11:33:26;;;;;;;1999.90;999.90;;;12.20;79.50;;;;;;5013113;28;20459;-79
2024/01/24 11:35:55;;;;;;;1999.90;999.90;;;12.20;79.10;;;;;;4998336;28;20070;-83
2024/01/24 11:38:22;;;;;;;1999.90;999.90;;;12.20;79.60;;;;;;5018003;28;20030;-79
2024/01/24 11:40:50;;;;;;;1999.90;999.90;;;12.30;79.40;;;;;;5020795;28;20386;-80
2024/01/24 11:43:26;;;;;;;1999.90;999.90;;;12.30;79.40;;;;;;5021445;28;20516;-79
2024/01/24 11:45:55;;;;;;;1999.90;999.90;;;12.40;79.20;;;;;;5021364;28;20048;-80
2024/01/24 11:48:22;;;;;;;1999.90;999.90;;;12.30;79.10;;;;;;5022408;28;20030;-77
2024/01/24 11:50:59;;;;;;;1999.90;999.90;;;12.40;79.20;;;;;;5012440;28;20104;-78
2024/01/24 11:53:26;;;;;;;1999.90;999.90;;;12.30;79.70;;;;;;5017585;28;20331;-80
2024/01/24 11:55:57;;;;;;;1999.90;999.90;;;12.30;79.70;;;;;;5015465;28;20032;-78
2024/01/24 11:58:27;;;;;;;1999.90;999.90;;;12.40;79.20;;;;;;5011242;28;20030;-85
2024/01/24 12:00:59;;;;;;;1999.90;999.90;;;12.60;79.20;;;;;;5016095;28;20040;-84